LIEO/OLB METAR and TAF weather

Enter ICAO airport designator
Station Type Date Time Source
LIEO METAR 2022/05/26 04:50 UTC NOAA

LIEO 260450Z VRB02KT 9999 FEW030 SCT050 19/18 Q1017


Station Type Date Time Source
LIEO Decoded METAR 2022/05/26 04:50 UTC NOAA

Olbia / Costa Smeralda, Italy (LIEO) 40-54N 009-31E 13M
May 26, 2022 - 12:50 AM EDT / 2022.05.26 0450 UTC
Wind: Variable at 2 MPH (2 KT):0
Visibility: greater than 7 mile(s):0
Sky conditions: partly cloudy
Temperature: 66 F (19 C)
Dew Point: 64 F (18 C)
Relative Humidity: 93%
Pressure (altimeter): 30.03 in. Hg (1017 hPa)
ob: LIEO 260450Z VRB02KT 9999 FEW030 SCT050 19/18 Q1017
cycle: 5

Station Type Date Time Source
LIEO TAF 2022/05/25 18:30 UTC NOAA

TAF
AMD LIEO 251726Z 2518/2618 09010KT 9999 BKN025
BECMG 2518/2520 26007KT
TEMPO 2518/2524 TSRA FEW030CB
TEMPO 2600/2606 RA
BECMG 2608/2610 06013KT
BECMG 2616/2618 VRB05KT

Example: see airport list